Time;durP1;ratioP1;P1;durP2;ratioP2;P2;SDS_P1;SDS_P2;PMS_P1;PMS_P2;Temp;Humidity;BMP_temperature;BMP_pressure;BME280_temperature;BME280_humidity;BME280_pressure;Samples;Min_cycle;Max_cycle;Signal;HPM_P1;HPM_P2
2022/01/11 00:00:49;;;;;;;26.83;18.25;;;;;;;2.33;100.00;97849.06;5091561;28;20705;-67
2022/01/11 00:03:17;;;;;;;29.23;18.42;;;;;;;2.46;100.00;97840.91;5091657;28;20473;-67
2022/01/11 00:05:57;;;;;;;25.05;17.88;;;;;;;2.49;100.00;97840.63;5091273;28;20491;-67
2022/01/11 00:08:31;;;;;;;28.73;18.10;;;;;;;2.69;100.00;97842.06;5090996;28;20535;-67
2022/01/11 00:11:04;;;;;;;24.58;17.38;;;;;;;2.64;100.00;97835.72;5091479;28;20485;-67
2022/01/11 00:13:37;;;;;;;26.80;17.48;;;;;;;2.66;100.00;97839.78;5091735;28;20398;-66
2022/01/11 00:16:03;;;;;;;26.02;16.30;;;;;;;2.73;100.00;97830.44;5091584;28;20393;-67
2022/01/11 00:18:29;;;;;;;26.33;16.88;;;;;;;2.76;100.00;97824.16;5091078;28;20406;-67
2022/01/11 00:20:55;;;;;;;25.30;17.20;;;;;;;2.68;100.00;97832.66;5091574;28;20881;-67
2022/01/11 00:25:51;;;;;;;25.00;16.83;;;;;;;2.25;100.00;97838.66;5094220;28;20389;-67
2022/01/11 00:28:18;;;;;;;28.75;18.08;;;;;;;2.39;100.00;97842.50;5095220;28;20409;-67
2022/01/11 00:30:46;;;;;;;28.23;18.93;;;;;;;2.30;100.00;97840.78;5087187;28;20394;-67
2022/01/11 00:33:16;;;;;;;29.27;19.03;;;;;;;2.16;100.00;97838.72;5094945;28;20421;-67
2022/01/11 00:35:56;;;;;;;31.87;19.70;;;;;;;2.23;100.00;97847.53;5094659;28;20447;-67
2022/01/11 00:38:22;;;;;;;30.85;19.15;;;;;;;1.92;100.00;97847.88;5093983;28;20426;-67
2022/01/11 00:40:50;;;;;;;31.98;19.88;;;;;;;1.99;100.00;97843.75;5094687;28;20418;-67
2022/01/11 00:43:17;;;;;;;29.08;19.67;;;;;;;2.18;100.00;97841.97;5059804;28;20866;-67
2022/01/11 00:45:43;;;;;;;28.45;19.95;;;;;;;2.41;100.00;97848.31;5095139;28;20402;-67
2022/01/11 00:48:09;;;;;;;30.90;17.43;;;;;;;1.99;100.00;97848.91;5096120;28;20224;-67
2022/01/11 00:50:36;;;;;;;28.33;16.67;;;;;;;1.99;100.00;97850.69;5095791;28;20204;-67
2022/01/11 00:53:05;;;;;;;30.53;15.70;;;;;;;1.94;100.00;97852.91;5096130;28;20188;-67
2022/01/11 00:55:31;;;;;;;24.80;15.50;;;;;;;2.00;100.00;97854.91;5095797;28;20234;-67
2022/01/11 00:57:57;;;;;;;31.07;16.17;;;;;;;2.12;100.00;97858.88;5095635;28;20228;-67
2022/01/11 01:00:22;;;;;;;25.10;16.53;;;;;;;2.00;100.00;97860.06;5095759;28;20204;-67
2022/01/11 01:02:48;;;;;;;26.90;16.00;;;;;;;1.83;100.00;97861.69;5095567;28;20181;-67
2022/01/11 01:05:17;;;;;;;31.67;17.37;;;;;;;2.09;100.00;97859.19;5077476;28;20176;-67
2022/01/11 01:07:43;;;;;;;34.43;17.50;;;;;;;2.14;100.00;97856.97;5095151;28;20192;-67
2022/01/11 01:10:18;;;;;;;33.80;17.20;;;;;;;2.02;100.00;97864.13;5095804;28;20249;-67
2022/01/11 01:12:44;;;;;;;33.93;16.10;;;;;;;1.95;100.00;97860.47;5095456;28;20183;-67
2022/01/11 01:15:09;;;;;;;35.43;17.47;;;;;;;2.00;100.00;97855.72;5095653;28;20181;-67
2022/01/11 01:17:35;;;;;;;34.70;17.97;;;;;;;2.14;100.00;97859.56;5095077;28;20263;-67
2022/01/11 01:20:00;;;;;;;29.63;17.37;;;;;;;1.98;100.00;97861.97;5077227;28;20273;-67
2022/01/11 01:22:26;;;;;;;35.67;17.47;;;;;;;1.91;100.00;97856.56;5095572;28;20196;-67
2022/01/11 01:24:51;;;;;;;32.77;18.27;;;;;;;2.04;100.00;97859.63;5094557;28;20180;-69
2022/01/11 01:27:16;;;;;;;33.47;18.47;;;;;;;2.04;100.00;97864.78;5093673;28;20683;-67
2022/01/11 01:29:42;;;;;;;31.37;18.00;;;;;;;1.96;100.00;97863.88;5094860;28;20180;-67
2022/01/11 01:32:09;;;;;;;35.67;18.33;;;;;;;1.96;100.00;97869.88;5094813;28;20184;-67
2022/01/11 01:34:35;;;;;;;30.60;17.43;;;;;;;1.92;100.00;97870.31;5094386;28;20179;-67
2022/01/11 01:37:01;;;;;;;35.17;17.30;;;;;;;1.83;100.00;97864.25;5094696;28;20181;-67
2022/01/11 01:39:27;;;;;;;31.80;17.43;;;;;;;1.99;100.00;97873.94;5095207;28;20673;-67
2022/01/11 01:41:53;;;;;;;31.30;18.17;;;;;;;1.90;100.00;97870.44;5095477;28;20188;-67
2022/01/11 01:44:19;;;;;;;36.57;17.13;;;;;;;2.02;100.00;97871.88;5094750;28;20199;-67
2022/01/11 01:46:44;;;;;;;36.07;17.83;;;;;;;2.00;100.00;97876.41;5094824;28;20184;-67
2022/01/11 01:49:16;;;;;;;26.97;17.97;;;;;;;1.79;100.00;97881.00;5094882;28;20191;-67
2022/01/11 01:51:42;;;;;;;36.00;18.90;;;;;;;1.80;100.00;97881.81;5094946;28;20165;-67
2022/01/11 01:54:08;;;;;;;37.60;20.00;;;;;;;1.75;100.00;97884.81;5094964;28;20288;-67
2022/01/11 01:56:33;;;;;;;34.40;18.77;;;;;;;1.67;100.00;97884.75;5094454;28;20176;-67
2022/01/11 01:58:59;;;;;;;37.30;18.83;;;;;;;1.74;100.00;97883.19;5094793;28;20200;-67
2022/01/11 02:01:26;;;;;;;36.13;19.53;;;;;;;1.68;100.00;97870.84;5094192;28;20184;-67
2022/01/11 02:03:52;;;;;;;29.40;17.40;;;;;;;1.83;100.00;97878.94;5094846;28;20673;-67
2022/01/11 02:06:19;;;;;;;32.30;18.63;;;;;;;1.86;100.00;97874.28;5094135;28;20227;-67
2022/01/11 02:08:47;;;;;;;33.30;18.67;;;;;;;1.86;100.00;97878.66;5093997;28;20215;-67
2022/01/11 02:11:17;;;;;;;31.13;18.60;;;;;;;2.05;100.00;97875.97;5094020;28;20625;-67
2022/01/11 02:13:44;;;;;;;35.13;18.07;;;;;;;2.01;100.00;97880.59;5075658;28;20184;-67
2022/01/11 02:16:10;;;;;;;32.60;17.97;;;;;;;2.03;100.00;97875.28;5094104;28;20173;-69
2022/01/11 02:18:35;;;;;;;35.87;18.43;;;;;;;2.03;100.00;97881.25;5094388;28;20538;-67
2022/01/11 02:21:01;;;;;;;47.37;18.97;;;;;;;1.90;100.00;97879.97;5076108;28;20637;-67
2022/01/11 02:23:28;;;;;;;37.23;18.93;;;;;;;1.86;100.00;97887.22;5094028;28;20539;-67
2022/01/11 02:25:54;;;;;;;37.00;18.93;;;;;;;1.88;100.00;97892.25;5093846;28;20267;-67
2022/01/11 02:28:22;;;;;;;34.77;17.60;;;;;;;1.99;100.00;97884.28;5094155;28;20181;-67
2022/01/11 02:30:48;;;;;;;31.43;18.47;;;;;;;2.01;100.00;97884.94;5093810;28;20245;-67
2022/01/11 02:33:26;;;;;;;32.63;18.57;;;;;;;1.92;100.00;97884.06;5093809;28;20224;-67
2022/01/11 02:35:52;;;;;;;36.10;18.67;;;;;;;1.89;100.00;97889.53;5094029;28;20180;-67
2022/01/11 02:38:17;;;;;;;42.03;19.83;;;;;;;2.08;100.00;97886.81;5072132;28;20224;-67
2022/01/11 02:40:44;;;;;;;38.07;19.00;;;;;;;1.97;100.00;97884.44;5073694;28;20177;-67
2022/01/11 02:43:10;;;;;;;32.63;18.97;;;;;;;1.96;100.00;97884.56;5073565;28;20633;-67
2022/01/11 02:45:35;;;;;;;36.23;19.57;;;;;;;1.85;100.00;97887.34;5073284;28;20177;-67
2022/01/11 02:48:01;;;;;;;34.53;19.03;;;;;;;1.79;100.00;97885.34;5072933;28;20181;-67
2022/01/11 02:50:26;;;;;;;34.27;18.87;;;;;;;1.94;100.00;97891.66;5072932;28;20194;-67
2022/01/11 02:52:52;;;;;;;35.43;20.90;;;;;;;1.84;100.00;97893.50;5073590;28;20264;-67
2022/01/11 02:55:18;;;;;;;32.53;19.23;;;;;;;1.82;100.00;97892.81;5073490;28;20661;-67
2022/01/11 02:57:44;;;;;;;36.93;19.27;;;;;;;1.92;100.00;97891.81;5073166;28;20266;-67
2022/01/11 03:00:18;;;;;;;44.07;21.03;;;;;;;1.88;100.00;97889.66;5072549;28;20902;-67
2022/01/11 03:02:44;;;;;;;47.83;27.88;;;;;;;1.94;100.00;97881.34;5060552;28;20396;-67
2022/01/11 03:05:11;;;;;;;45.40;27.38;;;;;;;1.95;100.00;97886.34;5071389;28;20391;-67
2022/01/11 03:07:38;;;;;;;42.88;26.02;;;;;;;2.10;100.00;97889.25;5071441;28;20403;-67
2022/01/11 03:12:53;;;;;;;36.03;23.67;;;;;;;2.07;100.00;97880.00;5072056;28;20745;-67
2022/01/11 03:15:18;;;;;;;33.30;22.67;;;;;;;2.30;100.00;97880.41;5071865;28;20384;-67
2022/01/11 03:17:45;;;;;;;32.30;21.17;;;;;;;1.88;100.00;97877.56;5071929;28;20429;-67
2022/01/11 03:20:11;;;;;;;34.75;22.42;;;;;;;2.06;100.00;97885.34;5071703;28;20384;-67
2022/01/11 03:22:37;;;;;;;34.47;22.52;;;;;;;2.02;100.00;97877.03;5071837;28;20403;-67
2022/01/11 03:25:05;;;;;;;32.83;21.52;;;;;;;2.10;100.00;97881.50;5072178;28;20412;-67
2022/01/11 03:27:31;;;;;;;36.47;21.80;;;;;;;2.39;100.00;97882.13;5051654;28;20912;-67
2022/01/11 03:29:56;;;;;;;34.35;21.85;;;;;;;2.40;100.00;97880.31;5058681;28;20387;-67
2022/01/11 03:32:21;;;;;;;34.97;21.93;;;;;;;1.95;100.00;97888.13;5071398;28;20423;-67
2022/01/11 03:34:47;;;;;;;32.37;21.10;;;;;;;1.91;100.00;97899.69;5057842;28;20742;-67
2022/01/11 03:37:16;;;;;;;33.90;21.47;;;;;;;2.09;100.00;97898.78;5051365;28;20417;-67
2022/01/11 03:39:41;;;;;;;34.87;22.33;;;;;;;1.98;100.00;97888.66;5075966;28;20481;-67
2022/01/11 03:42:07;;;;;;;34.37;22.73;;;;;;;2.12;100.00;97896.88;5073402;28;20754;-67
2022/01/11 03:44:32;;;;;;;36.88;23.00;;;;;;;2.15;100.00;97899.16;5091819;28;20476;-67
2022/01/11 03:46:59;;;;;;;36.07;22.97;;;;;;;2.10;100.00;97902.19;5089821;28;20405;-67
2022/01/11 03:49:25;;;;;;;35.40;24.05;;;;;;;2.13;100.00;97901.88;5072489;28;20398;-67
2022/01/11 03:51:50;;;;;;;35.97;22.97;;;;;;;1.98;100.00;97906.75;5071670;28;20383;-67
2022/01/11 03:54:23;;;;;;;36.37;23.33;;;;;;;2.00;100.00;97899.66;5071691;28;20387;-67
2022/01/11 03:56:49;;;;;;;34.83;23.15;;;;;;;2.31;100.00;97907.06;5072405;28;20904;-67
2022/01/11 03:59:15;;;;;;;35.75;22.42;;;;;;;2.37;100.00;97904.72;5076416;28;20496;-67
2022/01/11 04:01:40;;;;;;;37.78;23.15;;;;;;;2.42;100.00;97899.09;5095443;28;20420;-67
2022/01/11 04:04:07;;;;;;;36.23;22.63;;;;;;;2.42;100.00;97906.84;5095077;28;20870;-67
2022/01/11 04:06:33;;;;;;;32.95;22.67;;;;;;;2.27;100.00;97905.75;5079016;28;20470;-68
2022/01/11 04:08:58;;;;;;;32.65;22.67;;;;;;;2.45;100.00;97904.78;5075291;28;20486;-67
2022/01/11 04:11:23;;;;;;;34.33;23.53;;;;;;;2.25;100.00;97908.47;5075147;28;20392;-67
2022/01/11 04:13:49;;;;;;;38.97;22.90;;;;;;;2.11;100.00;97906.41;5076247;28;20445;-67
2022/01/11 04:16:15;;;;;;;35.25;22.50;;;;;;;2.00;100.00;97898.84;5071256;28;20390;-67
2022/01/11 04:18:41;;;;;;;36.47;23.13;;;;;;;1.96;100.00;97907.84;5076916;28;20410;-67
2022/01/11 04:21:07;;;;;;;37.00;23.20;;;;;;;2.34;100.00;97911.97;5094596;28;20405;-67
2022/01/11 04:23:34;;;;;;;38.63;23.30;;;;;;;2.12;100.00;97905.41;5094811;28;20404;-70
2022/01/11 04:26:00;;;;;;;38.78;22.92;;;;;;;2.11;100.00;97909.00;5065037;28;20929;-67
2022/01/11 04:28:27;;;;;;;37.30;23.92;;;;;;;2.02;100.00;97913.25;5075061;28;20479;-67
2022/01/11 04:30:57;;;;;;;37.60;23.52;;;;;;;2.09;100.00;97908.31;5075671;28;20465;-67
2022/01/11 04:33:32;;;;;;;38.15;23.25;;;;;;;1.78;100.00;97914.75;5075133;28;20392;-67
2022/01/11 04:35:59;;;;;;;38.65;24.42;;;;;;;1.87;100.00;97909.53;5067443;28;20398;-70
2022/01/11 04:38:27;;;;;;;38.67;24.52;;;;;;;1.88;100.00;97918.09;5089402;28;20458;-67
2022/01/11 04:40:53;;;;;;;40.50;25.20;;;;;;;1.97;100.00;97924.97;5094780;28;20404;-67
2022/01/11 04:43:19;;;;;;;38.28;23.70;;;;;;;2.12;100.00;97912.38;5095091;28;20468;-67
2022/01/11 04:45:47;;;;;;;33.03;22.80;;;;;;;2.01;100.00;97926.31;5094779;28;20404;-67
2022/01/11 04:48:14;;;;;;;35.50;22.48;;;;;;;2.15;100.00;97927.59;5095075;28;20386;-67
2022/01/11 04:50:39;;;;;;;31.95;21.67;;;;;;;2.19;100.00;97927.16;5094281;28;20728;-68
2022/01/11 04:53:05;;;;;;;42.50;24.30;;;;;;;2.17;100.00;97929.09;5076060;28;20394;-67
2022/01/11 04:55:32;;;;;;;38.80;25.60;;;;;;;1.87;100.00;97930.19;5094797;28;20510;-67
2022/01/11 04:57:58;;;;;;;38.50;24.83;;;;;;;2.02;100.00;97933.09;5094682;28;20518;-67
2022/01/11 05:00:24;;;;;;;39.83;24.75;;;;;;;2.07;100.00;97933.47;5094628;28;20386;-67
2022/01/11 05:02:50;;;;;;;40.72;25.65;;;;;;;2.11;100.00;97934.03;5094420;28;20381;-67
2022/01/11 05:05:15;;;;;;;39.55;26.17;;;;;;;1.95;100.00;97935.44;5094340;28;20389;-67
2022/01/11 05:07:46;;;;;;;43.55;26.75;;;;;;;1.98;100.00;97940.34;5075482;28;20882;-67
2022/01/11 05:10:12;;;;;;;45.00;26.63;;;;;;;2.07;100.00;97933.47;5093923;28;20390;-67
2022/01/11 05:12:40;;;;;;;42.80;26.00;;;;;;;1.95;100.00;97943.22;5094255;28;20447;-67
2022/01/11 05:15:10;;;;;;;43.05;25.20;;;;;;;1.81;100.00;97942.88;5094635;28;20381;-67
2022/01/11 05:17:37;;;;;;;40.33;25.70;;;;;;;1.52;100.00;97943.00;5093497;28;20481;-67
2022/01/11 05:20:05;;;;;;;40.13;24.70;;;;;;;1.54;100.00;97939.31;5093951;28;20397;-67
2022/01/11 05:22:30;;;;;;;38.35;23.85;;;;;;;1.72;100.00;97947.16;5093964;28;20432;-67
2022/01/11 05:24:56;;;;;;;39.27;23.93;;;;;;;1.68;100.00;97946.59;5094470;28;20390;-67
2022/01/11 05:27:21;;;;;;;36.47;23.33;;;;;;;1.75;100.00;97943.44;5093664;28;20388;-68
2022/01/11 05:29:47;;;;;;;40.55;24.00;;;;;;;1.87;100.00;97956.06;5094031;28;20394;-67
2022/01/11 05:32:12;;;;;;;34.40;22.97;;;;;;;2.05;100.00;97953.53;5093940;28;20443;-67
2022/01/11 05:34:37;;;;;;;38.90;23.13;;;;;;;2.20;100.00;97952.06;5093860;28;20863;-70
2022/01/11 05:37:03;;;;;;;38.23;22.77;;;;;;;1.94;100.00;97956.31;5093741;28;20503;-67
2022/01/11 05:39:29;;;;;;;39.13;24.08;;;;;;;1.91;100.00;97966.91;5094159;28;20426;-67
2022/01/11 05:41:54;;;;;;;40.67;24.02;;;;;;;1.69;100.00;97962.91;5093227;28;20385;-67
2022/01/11 05:44:20;;;;;;;38.20;23.70;;;;;;;1.60;100.00;97966.38;5093998;28;20381;-67
2022/01/11 05:46:46;;;;;;;42.63;24.50;;;;;;;1.53;100.00;97960.94;5093739;28;20799;-67
2022/01/11 05:49:11;;;;;;;38.23;24.60;;;;;;;1.64;100.00;97967.69;5093492;28;20906;-66
2022/01/11 05:51:36;;;;;;;38.47;24.40;;;;;;;1.43;100.00;97962.75;5093344;28;20403;-66
2022/01/11 05:54:02;;;;;;;40.45;24.80;;;;;;;1.47;100.00;97971.00;5093699;28;20393;-66
2022/01/11 05:56:28;;;;;;;38.07;24.93;;;;;;;1.60;100.00;97977.50;5075452;28;20885;-66
2022/01/11 05:58:53;;;;;;;44.20;25.80;;;;;;;1.66;100.00;97971.78;5093232;28;20406;-66
2022/01/11 06:01:20;;;;;;;37.90;24.40;;;;;;;1.78;100.00;97980.19;5074636;28;20394;-68
2022/01/11 06:03:45;;;;;;;35.10;23.35;;;;;;;1.79;100.00;97993.88;5092861;28;20386;-68
2022/01/11 06:06:11;;;;;;;33.63;23.17;;;;;;;1.51;100.00;97995.59;5093058;28;20755;-67
2022/01/11 06:08:37;;;;;;;37.33;22.87;;;;;;;1.77;100.00;97996.63;5092845;28;20412;-66
2022/01/11 06:11:03;;;;;;;38.53;23.83;;;;;;;1.83;100.00;97998.66;5092862;28;20882;-66
2022/01/11 06:13:28;;;;;;;40.08;24.27;;;;;;;1.68;100.00;98003.44;5092845;28;20419;-67
2022/01/11 06:15:54;;;;;;;38.50;23.30;;;;;;;1.60;100.00;98005.94;5093052;28;20469;-67
2022/01/11 06:18:19;;;;;;;33.53;22.13;;;;;;;1.81;100.00;98013.47;5092740;28;20405;-67
2022/01/11 06:20:45;;;;;;;32.30;21.70;;;;;;;1.77;100.00;98011.31;5092948;28;20394;-67
2022/01/11 06:23:10;;;;;;;34.17;22.73;;;;;;;1.80;100.00;98008.44;5092114;28;20397;-67
2022/01/11 06:25:37;;;;;;;34.53;23.13;;;;;;;1.76;100.00;98012.28;5092821;28;20394;-67
2022/01/11 06:28:03;;;;;;;35.35;23.27;;;;;;;1.90;100.00;98011.81;5093135;28;20396;-66
2022/01/11 06:30:29;;;;;;;36.05;22.52;;;;;;;1.84;100.00;98015.75;5073986;28;20405;-67
2022/01/11 06:32:55;;;;;;;34.67;21.67;;;;;;;1.80;100.00;98022.19;5092306;28;20405;-66
2022/01/11 06:35:22;;;;;;;32.88;22.65;;;;;;;2.00;100.00;98021.19;5074490;28;20398;-67
2022/01/11 06:37:47;;;;;;;35.83;23.47;;;;;;;2.11;100.00;98020.19;5092308;28;20424;-67
2022/01/11 06:40:16;;;;;;;34.17;21.60;;;;;;;1.86;100.00;98025.97;5092469;28;20394;-67
2022/01/11 06:42:42;;;;;;;34.35;22.70;;;;;;;1.97;100.00;98025.78;5092174;28;20386;-66
2022/01/11 06:45:08;;;;;;;32.70;22.33;;;;;;;1.80;100.00;98019.59;5092790;28;20427;-66
2022/01/11 06:47:33;;;;;;;34.60;23.08;;;;;;;1.96;100.00;98019.00;5092827;28;20739;-67
2022/01/11 06:49:59;;;;;;;30.83;21.20;;;;;;;1.70;100.00;98018.00;5092750;28;20435;-67
2022/01/11 06:52:24;;;;;;;30.80;21.60;;;;;;;1.83;100.00;98021.91;5091276;28;20865;-66
2022/01/11 06:54:49;;;;;;;30.77;21.10;;;;;;;1.77;100.00;98019.06;5091917;28;20393;-66
2022/01/11 06:57:15;;;;;;;31.10;21.30;;;;;;;1.73;100.00;98028.06;5091517;28;20378;-66
2022/01/11 06:59:40;;;;;;;30.65;20.75;;;;;;;1.78;100.00;98029.28;5091861;28;20477;-66
2022/01/11 07:02:07;;;;;;;30.87;20.10;;;;;;;1.98;100.00;98038.59;5091940;28;20378;-66
2022/01/11 07:04:33;;;;;;;29.20;19.42;;;;;;;1.92;100.00;98036.56;5092198;28;20446;-66
2022/01/11 07:06:58;;;;;;;27.75;19.17;;;;;;;1.81;100.00;98038.50;5092111;28;20394;-69
2022/01/11 07:09:24;;;;;;;27.03;18.93;;;;;;;1.54;100.00;98039.25;5091935;28;20409;-68
2022/01/11 07:11:50;;;;;;;25.03;17.77;;;;;;;1.69;100.00;98043.03;5092146;28;20583;-66
2022/01/11 07:14:15;;;;;;;28.03;18.23;;;;;;;1.97;100.00;98038.72;5091352;28;20435;-66
2022/01/11 07:16:43;;;;;;;26.58;18.42;;;;;;;2.21;100.00;98043.41;5091838;28;20390;-67
2022/01/11 07:19:09;;;;;;;25.08;17.50;;;;;;;2.19;100.00;98048.69;5091829;28;20409;-67
2022/01/11 07:21:34;;;;;;;26.17;17.38;;;;;;;2.06;100.00;98049.03;5091738;28;20394;-66
2022/01/11 07:24:01;;;;;;;24.55;16.60;;;;;;;2.05;100.00;98047.41;5091604;28;20451;-66
2022/01/11 07:26:27;;;;;;;23.25;16.42;;;;;;;2.12;100.00;98055.41;5092016;28;20477;-66
2022/01/11 07:28:52;;;;;;;23.27;16.17;;;;;;;2.20;100.00;98063.28;5091690;28;20477;-66
2022/01/11 07:31:17;;;;;;;24.53;16.57;;;;;;;2.39;100.00;98058.03;5091612;28;20378;-66
2022/01/11 07:33:43;;;;;;;24.30;17.20;;;;;;;2.68;100.00;98069.97;5091729;28;20386;-67
2022/01/11 07:36:08;;;;;;;25.83;17.37;;;;;;;2.87;100.00;98069.84;5090841;28;20447;-67
2022/01/11 07:38:34;;;;;;;25.77;17.38;;;;;;;2.57;100.00;98070.97;5090779;28;20428;-68
2022/01/11 07:40:59;;;;;;;25.43;17.27;;;;;;;2.26;100.00;98070.47;5090990;28;20800;-67
2022/01/11 07:43:24;;;;;;;22.97;16.70;;;;;;;2.50;100.00;98070.78;5091826;28;20394;-65
2022/01/11 07:45:50;;;;;;;23.42;16.10;;;;;;;2.33;100.00;98076.69;5073288;28;20958;-67
2022/01/11 07:48:15;;;;;;;23.93;16.10;;;;;;;2.31;100.00;98080.38;5092018;28;20390;-67
2022/01/11 07:50:41;;;;;;;25.80;16.80;;;;;;;2.69;100.00;98077.59;5091273;28;20381;-67
2022/01/11 07:53:06;;;;;;;22.63;15.73;;;;;;;2.53;100.00;98076.59;5090624;28;20393;-67
2022/01/11 07:55:33;;;;;;;21.33;15.37;;;;;;;2.61;99.67;98081.88;5091807;28;20386;-67
2022/01/11 07:57:58;;;;;;;22.15;16.23;;;;;;;2.20;100.00;98085.72;5091696;28;20487;-67
2022/01/11 08:00:23;;;;;;;26.03;16.43;;;;;;;2.53;100.00;98090.34;5090284;28;20398;-67
2022/01/11 08:02:49;;;;;;;23.87;15.83;;;;;;;2.46;100.00;98090.09;5090894;28;20377;-66
2022/01/11 08:05:15;;;;;;;22.10;15.57;;;;;;;2.57;100.00;98083.91;5073063;28;20755;-66
2022/01/11 08:07:42;;;;;;;21.67;16.23;;;;;;;2.62;99.93;98089.47;5090601;28;20386;-66
2022/01/11 08:10:12;;;;;;;21.42;15.23;;;;;;;2.23;100.00;98080.28;5084468;28;20758;-64
2022/01/11 08:12:38;;;;;;;21.83;15.32;;;;;;;2.33;100.00;98099.16;5070491;28;20427;-68
2022/01/11 08:15:04;;;;;;;21.48;15.65;;;;;;;2.71;100.00;98091.22;5070981;28;20383;-65
2022/01/11 08:17:29;;;;;;;22.63;15.57;;;;;;;3.05;97.75;98099.19;5081622;28;20437;-65
2022/01/11 08:19:55;;;;;;;22.67;16.48;;;;;;;3.10;98.60;98104.72;5072174;28;20824;-65
2022/01/11 08:22:20;;;;;;;23.83;17.17;;;;;;;2.63;99.53;98108.41;5090843;28;20480;-66
2022/01/11 08:24:46;;;;;;;25.33;17.27;;;;;;;2.75;99.49;98099.50;5090884;28;20511;-66
2022/01/11 08:27:13;;;;;;;24.00;17.07;;;;;;;2.82;100.00;98103.13;5090395;28;20433;-66
2022/01/11 08:29:39;;;;;;;24.83;17.50;;;;;;;2.31;100.00;98114.81;5085861;28;20403;-66
2022/01/11 08:32:08;;;;;;;24.90;17.77;;;;;;;2.86;100.00;98112.22;5084506;28;20408;-67
2022/01/11 08:34:34;;;;;;;23.92;17.65;;;;;;;2.62;100.00;98107.59;5077169;28;20403;-68
2022/01/11 08:37:00;;;;;;;24.63;16.73;;;;;;;2.86;100.00;98110.47;5075801;28;20455;-67
2022/01/11 08:39:26;;;;;;;27.10;18.58;;;;;;;2.93;99.60;98114.09;5077383;28;20515;-66
2022/01/11 08:41:51;;;;;;;24.90;18.13;;;;;;;2.72;99.37;98121.31;5089766;28;20468;-66
2022/01/11 08:44:19;;;;;;;26.20;17.53;;;;;;;2.56;100.00;98115.13;5088373;28;20394;-67
2022/01/11 08:46:46;;;;;;;24.83;17.73;;;;;;;2.88;99.84;98120.69;5080693;28;20530;-66
2022/01/11 08:49:13;;;;;;;24.67;17.95;;;;;;;2.84;99.86;98116.75;5075410;28;20412;-67
2022/01/11 08:51:39;;;;;;;25.83;17.80;;;;;;;2.74;100.00;98124.56;5086395;28;20390;-67
2022/01/11 08:54:04;;;;;;;23.33;16.42;;;;;;;2.69;100.00;98116.41;5090411;28;20383;-67
2022/01/11 08:56:31;;;;;;;26.10;17.52;;;;;;;3.05;99.62;98127.66;5088529;28;20791;-67
2022/01/11 08:58:56;;;;;;;23.73;15.90;;;;;;;3.58;94.48;98119.88;5093972;28;20767;-68
2022/01/11 09:01:23;;;;;;;22.43;16.33;;;;;;;2.99;96.85;98117.88;5081348;28;20384;-67
2022/01/11 09:03:49;;;;;;;22.95;15.85;;;;;;;3.36;95.61;98128.13;5093777;28;20447;-70
2022/01/11 09:06:14;;;;;;;21.83;14.95;;;;;;;3.38;94.98;98133.97;5093580;28;20386;-67
2022/01/11 09:08:41;;;;;;;20.38;15.10;;;;;;;3.23;94.46;98141.44;5093470;28;20696;-67
2022/01/11 09:11:07;;;;;;;21.80;15.88;;;;;;;2.90;96.79;98139.47;5093522;28;20832;-67
2022/01/11 09:13:36;;;;;;;21.83;15.15;;;;;;;3.13;94.82;98137.28;5093900;28;20398;-68
2022/01/11 09:16:02;;;;;;;21.92;15.55;;;;;;;3.09;94.54;98148.91;5092937;28;20386;-71
2022/01/11 09:18:27;;;;;;;20.15;14.82;;;;;;;3.01;94.74;98138.47;5075629;28;20420;-67
2022/01/11 09:20:52;;;;;;;18.47;13.20;;;;;;;3.10;94.67;98145.34;5092262;28;20446;-68
2022/01/11 09:23:18;;;;;;;21.13;14.73;;;;;;;3.05;96.94;98150.16;5075089;28;20477;-66
2022/01/11 09:25:45;;;;;;;23.15;15.02;;;;;;;3.47;96.37;98153.81;5093465;28;20415;-68
2022/01/11 09:28:11;;;;;;;19.90;14.87;;;;;;;3.32;94.43;98150.13;5093813;28;20397;-67
2022/01/11 09:30:36;;;;;;;19.10;13.47;;;;;;;3.12;95.09;98151.22;5093408;28;20481;-70
2022/01/11 09:33:02;;;;;;;21.92;15.30;;;;;;;3.35;96.22;98147.22;5092756;28;20743;-67
2022/01/11 09:35:28;;;;;;;21.95;15.40;;;;;;;3.65;94.42;98153.81;5093247;28;20491;-67
2022/01/11 09:37:53;;;;;;;21.27;15.90;;;;;;;3.87;92.83;98155.13;5092671;28;20479;-66
2022/01/11 09:40:19;;;;;;;21.13;15.30;;;;;;;3.28;94.39;98152.19;5092730;28;20386;-67
2022/01/11 09:42:44;;;;;;;25.77;16.77;;;;;;;3.47;94.47;98151.22;5092901;28;20402;-67
2022/01/11 09:45:11;;;;;;;23.10;16.40;;;;;;;3.55;94.60;98151.31;5092559;28;20406;-67
2022/01/11 09:47:39;;;;;;;22.55;14.93;;;;;;;3.26;93.54;98161.88;5093052;28;20413;-67
2022/01/11 09:50:06;;;;;;;20.70;15.00;;;;;;;3.15;95.49;98159.50;5092800;28;20394;-67
2022/01/11 09:52:31;;;;;;;21.63;15.63;;;;;;;3.51;95.16;98155.13;5072811;28;20440;-67
2022/01/11 09:54:57;;;;;;;23.55;15.65;;;;;;;3.43;94.81;98155.06;5093227;28;20402;-67
2022/01/11 09:57:23;;;;;;;19.53;14.63;;;;;;;3.58;94.32;98155.38;5093481;28;20863;-67
2022/01/11 09:59:49;;;;;;;20.67;14.50;;;;;;;3.81;92.42;98151.34;5092583;28;20972;-67
2022/01/11 10:02:14;;;;;;;19.33;13.73;;;;;;;3.68;92.05;98153.50;5093052;28;20469;-68
2022/01/11 10:04:40;;;;;;;19.13;14.37;;;;;;;3.75;92.62;98150.16;5092644;28;20390;-66
2022/01/11 10:07:08;;;;;;;19.05;13.32;;;;;;;3.95;90.89;98150.81;5092644;28;20394;-67
2022/01/11 10:09:48;;;;;;;17.90;12.85;;;;;;;3.72;91.08;98157.44;5092743;28;20402;-66
2022/01/11 10:12:14;;;;;;;19.95;13.65;;;;;;;3.85;89.66;98162.22;5091916;28;20401;-66
2022/01/11 10:14:47;;;;;;;18.67;13.82;;;;;;;3.80;90.19;98161.88;5092979;28;20391;-67
2022/01/11 10:17:19;;;;;;;18.70;13.27;;;;;;;3.94;89.08;98154.38;5076386;28;20400;-67
2022/01/11 10:20:00;;;;;;;18.50;12.88;;;;;;;3.78;90.92;98151.66;5073039;28;20419;-68
2022/01/11 10:22:26;;;;;;;19.80;13.43;;;;;;;3.92;89.31;98151.13;5082325;28;20875;-68
2022/01/11 10:24:53;;;;;;;17.20;13.15;;;;;;;4.03;88.42;98147.47;5074476;28;20469;-69
2022/01/11 10:27:26;;;;;;;14.70;11.45;;;;;;;3.98;87.98;98150.50;5091826;28;20397;-68
2022/01/11 10:29:56;;;;;;;18.70;13.37;;;;;;;3.92;88.65;98160.66;5092118;28;20390;-67
2022/01/11 10:32:26;;;;;;;17.70;12.52;;;;;;;4.11;88.68;98148.34;5092580;28;20386;-68
2022/01/11 10:34:55;;;;;;;17.33;12.10;;;;;;;3.94;87.58;98150.97;5092715;28;20532;-68
2022/01/11 10:37:29;;;;;;;18.20;12.82;;;;;;;4.05;87.74;98148.94;5091677;28;20386;-67
2022/01/11 10:40:21;;;;;;;17.55;12.43;;;;;;;3.93;88.45;98147.56;5073767;28;20886;-67
2022/01/11 10:42:49;;;;;;;17.00;11.98;;;;;;;3.88;87.91;98154.16;5087273;28;20398;-68
2022/01/11 10:45:18;;;;;;;17.05;11.20;;;;;;;4.10;87.01;98148.50;5091979;28;20401;-67
2022/01/11 10:47:47;;;;;;;15.02;10.73;;;;;;;4.45;84.46;98139.78;5092107;28;20394;-68
2022/01/11 10:50:18;;;;;;;16.43;11.63;;;;;;;4.19;84.06;98144.97;5092020;28;20467;-67
2022/01/11 10:52:44;;;;;;;15.20;10.75;;;;;;;4.48;83.24;98144.66;5092127;28;20448;-69
2022/01/11 10:55:15;;;;;;;14.85;10.63;;;;;;;4.15;84.99;98138.47;5091724;28;20390;-70
2022/01/11 10:57:43;;;;;;;15.25;11.18;;;;;;;4.40;84.54;98157.59;5091407;28;20447;-68
2022/01/11 11:00:32;;;;;;;16.75;10.85;;;;;;;4.55;83.49;98146.47;5091444;28;20488;-68
2022/01/11 11:03:02;;;;;;;15.50;9.98;;;;;;;4.70;79.78;98146.69;5061126;28;20751;-68
2022/01/11 11:05:32;;;;;;;14.02;9.75;;;;;;;4.39;81.73;98140.41;5090756;28;20493;-68
2022/01/11 11:08:02;;;;;;;13.03;9.70;;;;;;;4.37;80.79;98147.50;5091130;28;20406;-67
2022/01/11 11:10:40;;;;;;;15.05;10.00;;;;;;;4.56;80.33;98142.94;5090998;28;20810;-67
2022/01/11 11:13:07;;;;;;;12.35;8.95;;;;;;;4.46;78.89;98157.78;5091426;28;20888;-67
2022/01/11 11:15:39;;;;;;;12.43;9.68;;;;;;;4.54;80.99;98150.03;5091574;28;20386;-68
2022/01/11 11:18:07;;;;;;;13.85;10.07;;;;;;;4.36;81.43;98140.69;5091456;28;20402;-68
2022/01/11 11:20:35;;;;;;;10.50;8.45;;;;;;;4.71;79.57;98157.91;5084963;28;20382;-68
2022/01/11 11:23:04;;;;;;;8.80;7.43;;;;;;;4.71;78.18;98148.34;5091118;28;20485;-68